Time;durP1;ratioP1;P1;durP2;ratioP2;P2;SDS_P1;SDS_P2;PMS_P1;PMS_P2;Temp;Humidity;BMP_temperature;BMP_pressure;BME280_temperature;BME280_humidity;BME280_pressure;Samples;Min_cycle;Max_cycle;Signal;HPM_P1;HPM_P2
2020/12/14 00:00:30;;;;;;;2.40;1.20;;;20.80;49.60;;;;;;4999729;28;20235;-58
2020/12/14 00:03:00;;;;;;;4.63;1.30;;;20.80;49.80;;;;;;5007967;28;20238;-59
2020/12/14 00:05:26;;;;;;;5.60;1.43;;;20.70;49.80;;;;;;5007716;28;20224;-58
2020/12/14 00:07:53;;;;;;;2.03;1.20;;;20.70;49.80;;;;;;5000789;28;20231;-57
2020/12/14 00:10:20;;;;;;;3.23;1.47;;;20.60;49.80;;;;;;5007176;28;20220;-58
2020/12/14 00:12:47;;;;;;;2.07;1.10;;;20.60;49.90;;;;;;5000197;28;20227;-58
2020/12/14 00:15:13;;;;;;;3.53;1.23;;;20.60;49.90;;;;;;5005576;28;20219;-58
2020/12/14 00:17:39;;;;;;;1.60;1.00;;;20.50;50.20;;;;;;4998994;28;20758;-57
2020/12/14 00:20:06;;;;;;;2.17;1.23;;;20.40;50.20;;;;;;5007348;28;20235;-58
2020/12/14 00:22:35;;;;;;;2.10;1.10;;;20.40;50.20;;;;;;5000491;28;20591;-58
2020/12/14 00:25:03;;;;;;;1.80;1.17;;;20.40;50.40;;;;;;5005170;28;20227;-58
2020/12/14 00:27:29;;;;;;;2.03;1.17;;;20.40;50.40;;;;;;4999767;28;20224;-58
2020/12/14 00:29:56;;;;;;;3.33;1.30;;;20.30;50.40;;;;;;5005393;28;20232;-58
2020/12/14 00:32:23;;;;;;;2.27;1.30;;;20.30;50.40;;;;;;5000168;28;20227;-58
2020/12/14 00:34:49;;;;;;;3.00;1.27;;;20.20;50.40;;;;;;5008085;28;20235;-57
2020/12/14 00:37:16;;;;;;;2.13;1.10;;;20.20;50.50;;;;;;4997259;28;20262;-57
2020/12/14 00:39:43;;;;;;;1.67;1.00;;;20.10;50.60;;;;;;5008583;28;20223;-56
2020/12/14 00:42:09;;;;;;;1.10;0.90;;;20.10;50.50;;;;;;4984643;28;20606;-58
2020/12/14 00:44:35;;;;;;;2.20;1.10;;;20.10;50.60;;;;;;4992096;28;20239;-58
2020/12/14 00:47:01;;;;;;;2.80;1.10;;;20.10;50.60;;;;;;4986593;28;20231;-58
2020/12/14 00:49:28;;;;;;;2.70;1.10;;;20.00;50.80;;;;;;4981343;28;20615;-58
2020/12/14 00:51:54;;;;;;;2.70;1.30;;;20.00;50.80;;;;;;4985823;28;20771;-58
2020/12/14 00:54:21;;;;;;;2.40;1.30;;;20.00;50.80;;;;;;4985513;28;20224;-58
2020/12/14 00:56:47;;;;;;;3.00;1.20;;;20.00;50.80;;;;;;4988456;28;20802;-58
2020/12/14 00:59:13;;;;;;;1.93;1.20;;;20.00;50.90;;;;;;4984115;28;20227;-58
2020/12/14 01:01:40;;;;;;;3.07;1.17;;;19.90;50.80;;;;;;4987709;28;20224;-58
2020/12/14 01:04:06;;;;;;;1.37;1.00;;;19.90;50.80;;;;;;4980397;28;20232;-57
2020/12/14 01:06:32;;;;;;;1.70;1.00;;;19.90;51.00;;;;;;4987748;28;20224;-57
2020/12/14 01:08:59;;;;;;;1.27;0.90;;;19.80;50.90;;;;;;4994854;28;20228;-58
2020/12/14 01:11:26;;;;;;;2.40;1.00;;;19.80;51.00;;;;;;4987177;28;20220;-58
2020/12/14 01:13:53;;;;;;;1.87;1.07;;;19.80;51.00;;;;;;4982036;28;20223;-57
2020/12/14 01:16:20;;;;;;;1.70;1.03;;;19.80;51.20;;;;;;5003674;28;20239;-58
2020/12/14 01:18:46;;;;;;;1.40;1.00;;;19.70;51.00;;;;;;4993257;28;20228;-58
2020/12/14 01:21:23;;;;;;;2.10;1.00;;;19.70;51.00;;;;;;5006523;28;20227;-58
2020/12/14 01:23:50;;;;;;;1.83;0.97;;;19.70;51.20;;;;;;4998886;28;20231;-58
2020/12/14 01:26:16;;;;;;;2.10;1.00;;;19.70;51.30;;;;;;5006458;28;20220;-58
2020/12/14 01:28:43;;;;;;;1.90;1.00;;;19.60;51.30;;;;;;5006688;28;20227;-57
2020/12/14 01:31:09;;;;;;;2.60;1.20;;;19.60;51.20;;;;;;4996885;28;20884;-59
2020/12/14 01:33:36;;;;;;;1.53;1.00;;;19.60;51.40;;;;;;5006726;28;20305;-58
2020/12/14 01:36:03;;;;;;;1.47;0.80;;;19.60;51.40;;;;;;4997613;28;20692;-58
2020/12/14 01:38:29;;;;;;;2.13;1.20;;;19.60;51.50;;;;;;5006042;28;20235;-57
2020/12/14 01:40:55;;;;;;;2.10;1.10;;;19.50;51.40;;;;;;4997954;28;20730;-57
2020/12/14 01:43:22;;;;;;;2.00;1.00;;;19.50;51.40;;;;;;5005315;28;20238;-59
2020/12/14 01:45:50;;;;;;;2.03;1.00;;;19.50;51.60;;;;;;4999173;28;20235;-58
2020/12/14 01:48:18;;;;;;;1.63;0.93;;;19.50;51.60;;;;;;5004536;28;21559;-58
2020/12/14 01:50:45;;;;;;;3.13;1.03;;;19.50;51.50;;;;;;4999086;28;20247;-58
2020/12/14 01:53:14;;;;;;;2.07;0.90;;;19.50;51.50;;;;;;5004046;28;20230;-58
2020/12/14 01:55:41;;;;;;;2.93;0.83;;;19.50;51.60;;;;;;4998196;28;20228;-59
2020/12/14 01:58:09;;;;;;;1.57;1.07;;;19.40;51.80;;;;;;5004198;28;20250;-56
2020/12/14 02:00:35;;;;;;;1.53;0.97;;;19.40;51.70;;;;;;4997084;28;20239;-57
2020/12/14 02:03:02;;;;;;;1.50;0.93;;;19.30;51.70;;;;;;5006026;28;20281;-58
2020/12/14 02:05:29;;;;;;;1.97;1.00;;;19.30;51.80;;;;;;5002423;28;20235;-59
2020/12/14 02:07:56;;;;;;;0.97;0.77;;;19.30;51.80;;;;;;5004008;28;20278;-57
2020/12/14 02:10:23;;;;;;;2.23;1.03;;;19.30;51.90;;;;;;5006202;28;20223;-57
2020/12/14 02:12:49;;;;;;;1.57;0.90;;;19.30;51.80;;;;;;4997272;28;20242;-59
2020/12/14 02:15:16;;;;;;;1.57;1.20;;;19.30;51.80;;;;;;5003739;28;20230;-58
2020/12/14 02:17:43;;;;;;;1.97;1.00;;;19.20;51.80;;;;;;4996733;28;20601;-57
2020/12/14 02:20:10;;;;;;;1.60;0.93;;;19.20;51.80;;;;;;5004151;28;20238;-58
2020/12/14 02:22:36;;;;;;;2.57;1.10;;;19.20;51.80;;;;;;4997660;28;20219;-58
2020/12/14 02:25:07;;;;;;;1.53;0.73;;;19.20;51.80;;;;;;5003681;28;20235;-57
2020/12/14 02:27:36;;;;;;;1.00;0.70;;;19.10;51.70;;;;;;4997929;28;21628;-57
2020/12/14 02:30:06;;;;;;;1.23;0.77;;;19.20;51.90;;;;;;5000981;28;20699;-58
2020/12/14 02:32:33;;;;;;;1.00;0.67;;;19.10;51.90;;;;;;4996740;28;20221;-58
2020/12/14 02:35:00;;;;;;;2.43;1.03;;;19.10;52.00;;;;;;5004586;28;20223;-58
2020/12/14 02:37:29;;;;;;;1.50;0.77;;;19.10;51.90;;;;;;4997415;28;20231;-57
2020/12/14 02:39:55;;;;;;;2.43;0.87;;;19.10;51.80;;;;;;5004393;28;20261;-58
2020/12/14 02:42:23;;;;;;;1.27;0.90;;;19.10;51.90;;;;;;5011339;28;20233;-58
2020/12/14 02:44:51;;;;;;;2.40;0.90;;;19.00;51.90;;;;;;4982440;28;20251;-58
2020/12/14 02:47:17;;;;;;;1.47;0.63;;;19.10;51.90;;;;;;4981137;28;20222;-58
2020/12/14 02:49:44;;;;;;;1.40;1.00;;;19.00;51.90;;;;;;4986029;28;20855;-57
2020/12/14 02:52:12;;;;;;;2.60;1.00;;;19.00;52.10;;;;;;5021250;28;20707;-58
2020/12/14 02:54:40;;;;;;;1.83;0.77;;;19.00;51.90;;;;;;4993988;28;20707;-58
2020/12/14 02:57:07;;;;;;;1.97;0.90;;;19.00;51.90;;;;;;5006618;28;20227;-57
2020/12/14 02:59:33;;;;;;;1.17;0.60;;;18.90;52.10;;;;;;4997118;28;20441;-58
2020/12/14 03:01:59;;;;;;;1.27;0.80;;;19.00;52.10;;;;;;5005756;28;20234;-58
2020/12/14 03:04:26;;;;;;;1.83;0.90;;;18.90;52.10;;;;;;4996601;28;20309;-58
2020/12/14 03:06:52;;;;;;;1.60;0.70;;;18.90;52.20;;;;;;5006812;28;20235;-58
2020/12/14 03:09:21;;;;;;;1.10;0.80;;;18.90;52.20;;;;;;4996359;28;20314;-58
2020/12/14 03:11:49;;;;;;;1.00;0.70;;;18.90;52.20;;;;;;5006666;28;20219;-58
2020/12/14 03:14:16;;;;;;;1.00;0.73;;;18.90;52.20;;;;;;4994475;28;20219;-57
2020/12/14 03:16:50;;;;;;;1.30;0.90;;;18.90;52.30;;;;;;5006375;28;20257;-57
2020/12/14 03:19:18;;;;;;;1.20;0.80;;;18.90;52.30;;;;;;4996007;28;20847;-57
2020/12/14 03:21:44;;;;;;;1.53;0.70;;;18.90;52.30;;;;;;5006736;28;20322;-57
2020/12/14 03:24:11;;;;;;;1.97;0.90;;;18.80;52.30;;;;;;4996399;28;20802;-57
2020/12/14 03:26:40;;;;;;;2.33;0.90;;;18.80;52.20;;;;;;5005800;28;20255;-57
2020/12/14 03:29:08;;;;;;;1.67;0.87;;;18.80;52.20;;;;;;4997983;28;20218;-58
2020/12/14 03:31:36;;;;;;;1.57;0.90;;;18.80;52.30;;;;;;5008304;28;20734;-57
2020/12/14 03:34:02;;;;;;;0.60;0.57;;;18.80;52.30;;;;;;5008448;28;20234;-58
2020/12/14 03:36:29;;;;;;;1.73;0.80;;;18.80;52.50;;;;;;4999888;28;20220;-57
2020/12/14 03:38:55;;;;;;;0.83;0.60;;;18.80;52.50;;;;;;5009382;28;20219;-57
2020/12/14 03:41:23;;;;;;;1.77;0.90;;;18.80;52.50;;;;;;4998844;28;20230;-57
2020/12/14 03:43:51;;;;;;;1.10;0.70;;;18.70;52.50;;;;;;5009214;28;20258;-58
2020/12/14 03:46:23;;;;;;;1.27;0.57;;;18.80;52.50;;;;;;5000242;28;20251;-58
2020/12/14 03:48:54;;;;;;;0.87;0.50;;;18.70;52.50;;;;;;5007669;28;20771;-57
2020/12/14 03:51:22;;;;;;;1.70;0.60;;;18.70;52.60;;;;;;4999199;28;20246;-57
2020/12/14 03:53:49;;;;;;;1.00;0.47;;;18.70;52.50;;;;;;5008456;28;20717;-57
2020/12/14 03:56:20;;;;;;;0.83;0.60;;;18.70;52.50;;;;;;4999059;28;20328;-57
2020/12/14 03:58:47;;;;;;;1.60;0.80;;;18.70;52.60;;;;;;5007379;28;20247;-57
2020/12/14 04:01:18;;;;;;;1.07;0.60;;;18.70;53.30;;;;;;4999540;28;20238;-57
2020/12/14 04:03:44;;;;;;;0.97;0.60;;;18.70;52.70;;;;;;5007588;28;20706;-57
2020/12/14 04:06:19;;;;;;;1.13;0.50;;;18.70;52.70;;;;;;4998369;28;20263;-58
2020/12/14 04:08:46;;;;;;;1.00;0.60;;;18.70;52.80;;;;;;5008555;28;20241;-57
2020/12/14 04:11:13;;;;;;;0.67;0.60;;;18.70;52.80;;;;;;4998809;28;20231;-57
2020/12/14 04:13:41;;;;;;;0.87;0.50;;;18.60;52.80;;;;;;5006359;28;20215;-57
2020/12/14 04:16:08;;;;;;;2.30;0.80;;;18.70;52.80;;;;;;4998145;28;20227;-57
2020/12/14 04:18:35;;;;;;;2.10;1.00;;;18.60;52.80;;;;;;5009112;28;20312;-58
2020/12/14 04:21:02;;;;;;;0.50;0.50;;;18.60;53.50;;;;;;5007175;28;20235;-57
2020/12/14 04:23:29;;;;;;;1.30;0.80;;;18.60;52.90;;;;;;4999537;28;20547;-58
2020/12/14 04:25:56;;;;;;;1.20;0.53;;;18.60;52.90;;;;;;5004668;28;20231;-57
2020/12/14 04:28:23;;;;;;;1.23;0.60;;;18.60;53.00;;;;;;4999550;28;20242;-57
2020/12/14 04:30:49;;;;;;;0.97;0.50;;;18.60;53.00;;;;;;5004910;28;20220;-57
2020/12/14 04:33:16;;;;;;;1.07;0.50;;;18.60;53.10;;;;;;4997713;28;20420;-57
2020/12/14 04:35:42;;;;;;;1.43;0.70;;;18.60;53.10;;;;;;5007744;28;20625;-56
2020/12/14 04:38:08;;;;;;;1.50;0.70;;;18.50;53.00;;;;;;4996549;28;20216;-58
2020/12/14 04:40:35;;;;;;;0.80;0.60;;;18.60;53.20;;;;;;5006967;28;20230;-56
2020/12/14 04:43:01;;;;;;;0.87;0.57;;;18.50;53.20;;;;;;4998354;28;20586;-58
2020/12/14 04:45:28;;;;;;;0.70;0.50;;;18.50;53.10;;;;;;4986232;28;20228;-58
2020/12/14 04:47:56;;;;;;;1.13;0.70;;;18.50;53.20;;;;;;4977347;28;20232;-56
2020/12/14 04:50:24;;;;;;;0.90;0.40;;;18.60;53.30;;;;;;4988546;28;20250;-58
2020/12/14 04:52:52;;;;;;;0.80;0.40;;;18.50;53.30;;;;;;4978270;28;20608;-57
2020/12/14 04:55:23;;;;;;;0.77;0.50;;;18.50;53.40;;;;;;4987193;28;21872;-57
2020/12/14 04:57:51;;;;;;;0.40;0.40;;;18.50;53.40;;;;;;4974759;28;20239;-56
2020/12/14 05:00:19;;;;;;;1.63;0.80;;;18.50;53.30;;;;;;4988714;28;20247;-57
2020/12/14 05:02:53;;;;;;;1.00;0.60;;;18.50;53.40;;;;;;4985090;28;20308;-59
2020/12/14 05:05:20;;;;;;;0.87;0.50;;;18.50;53.40;;;;;;4986086;28;20223;-56
2020/12/14 05:07:46;;;;;;;1.20;0.50;;;18.50;53.40;;;;;;4995656;28;20224;-58
2020/12/14 05:10:13;;;;;;;1.43;0.50;;;18.50;53.60;;;;;;4978936;28;20235;-56
2020/12/14 05:12:41;;;;;;;1.93;0.67;;;18.50;53.50;;;;;;4985219;28;20220;-57
2020/12/14 05:15:18;;;;;;;1.40;0.60;;;18.50;53.50;;;;;;4979757;28;20228;-57
2020/12/14 05:17:45;;;;;;;1.50;0.50;;;18.50;53.60;;;;;;4979692;28;20228;-58
2020/12/14 05:20:13;;;;;;;0.83;0.50;;;18.50;53.80;;;;;;4993294;28;20842;-58
2020/12/14 05:22:54;;;;;;;0.60;0.40;;;18.40;53.70;;;;;;4997558;28;20287;-58
2020/12/14 05:25:20;;;;;;;0.97;0.60;;;18.50;53.60;;;;;;4981958;28;20436;-56
2020/12/14 05:27:46;;;;;;;3.10;0.60;;;18.50;53.60;;;;;;4995174;28;20221;-56
2020/12/14 05:30:14;;;;;;;2.23;0.63;;;18.50;53.60;;;;;;4977570;28;20231;-56
2020/12/14 05:32:41;;;;;;;0.60;0.50;;;18.50;53.60;;;;;;4987501;28;20779;-56
2020/12/14 05:35:11;;;;;;;0.93;0.53;;;18.50;53.60;;;;;;4980034;28;20239;-58
2020/12/14 05:37:40;;;;;;;0.73;0.40;;;18.50;53.50;;;;;;4986455;28;20914;-56
2020/12/14 05:40:12;;;;;;;0.80;0.40;;;18.50;53.50;;;;;;4977961;28;20248;-56
2020/12/14 05:42:42;;;;;;;0.60;0.33;;;18.50;53.60;;;;;;4987196;28;20228;-57
2020/12/14 05:45:12;;;;;;;0.70;0.40;;;18.40;53.50;;;;;;4977340;28;20242;-58
2020/12/14 05:47:42;;;;;;;0.40;0.30;;;18.50;53.50;;;;;;4980812;28;20224;-56
2020/12/14 05:50:10;;;;;;;3.30;0.70;;;18.40;53.50;;;;;;4976741;28;20236;-57
2020/12/14 05:52:48;;;;;;;1.33;0.60;;;18.50;53.60;;;;;;4996733;28;20284;-56
2020/12/14 05:55:18;;;;;;;2.63;0.40;;;18.50;54.00;;;;;;4999648;28;21750;-57
2020/12/14 05:57:49;;;;;;;1.50;0.50;;;18.60;54.40;;;;;;5007105;28;20231;-56
2020/12/14 06:00:17;;;;;;;1.63;0.47;;;18.70;54.10;;;;;;5001740;28;20239;-57
2020/12/14 06:02:44;;;;;;;0.60;0.43;;;18.80;54.10;;;;;;5007738;28;20231;-58
2020/12/14 06:05:10;;;;;;;2.73;0.50;;;18.90;54.30;;;;;;4992190;28;20228;-59
2020/12/14 06:07:38;;;;;;;0.97;0.50;;;18.90;54.30;;;;;;4982718;28;20844;-57
2020/12/14 06:10:08;;;;;;;0.50;0.40;;;19.00;54.20;;;;;;4987542;28;20802;-60
2020/12/14 06:12:37;;;;;;;0.60;0.30;;;19.10;54.10;;;;;;4979751;28;20903;-56
2020/12/14 06:15:09;;;;;;;1.53;0.53;;;19.10;54.00;;;;;;4995937;28;20247;-59
2020/12/14 06:17:38;;;;;;;8.87;0.63;;;19.10;54.10;;;;;;4982254;28;20236;-58
2020/12/14 06:20:06;;;;;;;3.80;0.70;;;19.30;54.10;;;;;;5005060;28;20262;-58
2020/12/14 06:22:34;;;;;;;13.90;0.60;;;19.30;54.00;;;;;;5001032;28;20262;-59
2020/12/14 06:25:03;;;;;;;8.70;0.60;;;19.30;54.00;;;;;;5006217;28;20219;-59
2020/12/14 06:27:30;;;;;;;9.20;0.60;;;19.40;54.00;;;;;;5002687;28;20223;-61
2020/12/14 06:29:56;;;;;;;1.13;0.50;;;19.40;53.90;;;;;;5009897;28;20223;-58
2020/12/14 06:32:39;;;;;;;0.73;0.30;;;19.40;53.90;;;;;;5004392;28;20748;-60
2020/12/14 06:35:16;;;;;;;0.40;0.40;;;19.50;53.90;;;;;;5007448;28;21339;-58
2020/12/14 06:37:52;;;;;;;5.43;0.60;;;19.50;53.90;;;;;;4981168;28;20235;-57
2020/12/14 06:40:20;;;;;;;0.73;0.50;;;19.60;53.80;;;;;;5008348;28;20586;-61
2020/12/14 06:42:49;;;;;;;1.70;0.50;;;19.60;53.40;;;;;;4993115;28;20635;-61
2020/12/14 06:45:17;;;;;;;0.80;0.50;;;19.70;53.30;;;;;;5022423;28;20222;-61
2020/12/14 06:47:46;;;;;;;0.67;0.40;;;19.70;53.20;;;;;;5009875;28;20230;-60
2020/12/14 06:50:23;;;;;;;3.70;0.40;;;19.70;53.30;;;;;;5003779;28;20238;-63
2020/12/14 06:52:50;;;;;;;5.43;0.67;;;19.80;53.60;;;;;;4997124;28;20863;-60
2020/12/14 06:55:42;;;;;;;3.30;0.40;;;19.90;53.40;;;;;;5003719;28;20226;-61
2020/12/14 06:58:10;;;;;;;3.50;0.60;;;19.90;53.00;;;;;;4995812;28;20332;-59
2020/12/14 07:00:37;;;;;;;1.33;0.47;;;20.00;53.00;;;;;;5002519;28;20227;-60
2020/12/14 07:03:03;;;;;;;1.03;0.50;;;20.00;53.00;;;;;;5002316;28;20228;-58
2020/12/14 07:05:29;;;;;;;1.87;0.60;;;20.00;53.00;;;;;;5009360;28;20712;-59
2020/12/14 07:07:57;;;;;;;0.87;0.60;;;20.00;53.00;;;;;;5009649;28;20215;-61
2020/12/14 07:10:25;;;;;;;0.57;0.37;;;20.00;52.70;;;;;;5008571;28;20219;-62
2020/12/14 07:12:52;;;;;;;1.07;0.40;;;20.10;52.40;;;;;;5011039;28;20226;-62
2020/12/14 07:15:35;;;;;;;1.40;0.30;;;20.10;52.40;;;;;;5004946;28;20525;-61
2020/12/14 07:18:08;;;;;;;0.60;0.40;;;20.10;52.20;;;;;;5011502;28;20286;-60
2020/12/14 07:20:42;;;;;;;2.33;0.60;;;20.10;52.40;;;;;;5004530;28;21444;-60
2020/12/14 07:23:09;;;;;;;2.63;0.57;;;20.20;52.60;;;;;;5006967;28;20229;-62
2020/12/14 07:25:38;;;;;;;2.00;0.67;;;20.20;52.20;;;;;;5005627;28;20225;-64
2020/12/14 07:28:15;;;;;;;6.47;0.50;;;20.30;52.20;;;;;;5025045;28;20275;-66
2020/12/14 07:30:45;;;;;;;1.00;0.40;;;20.30;52.30;;;;;;5011718;28;20225;-63
2020/12/14 07:33:15;;;;;;;2.03;0.43;;;20.30;52.20;;;;;;5007149;28;20227;-62
2020/12/14 07:35:45;;;;;;;2.27;0.60;;;20.30;52.00;;;;;;5002549;28;20224;-62
2020/12/14 07:38:12;;;;;;;1.13;0.50;;;20.40;51.80;;;;;;5014034;28;20224;-60
2020/12/14 07:40:38;;;;;;;5.67;0.60;;;20.40;51.70;;;;;;5007402;28;20219;-58
2020/12/14 07:43:09;;;;;;;1.27;0.50;;;20.30;50.70;;;;;;5009110;28;20598;-61
2020/12/14 07:45:38;;;;;;;3.43;0.40;;;20.10;50.90;;;;;;4997749;28;20226;-59
2020/12/14 07:48:22;;;;;;;0.90;0.40;;;20.10;52.10;;;;;;5007170;28;20421;-59
2020/12/14 07:50:50;;;;;;;2.40;0.50;;;20.20;52.10;;;;;;4993765;28;20234;-60
2020/12/14 07:53:16;;;;;;;1.53;0.53;;;20.20;51.90;;;;;;5006842;28;20243;-61
2020/12/14 07:55:43;;;;;;;1.83;0.70;;;20.20;51.70;;;;;;4997377;28;20703;-61
2020/12/14 07:58:10;;;;;;;1.03;0.43;;;20.20;51.70;;;;;;5004299;28;20586;-63
2020/12/14 08:00:37;;;;;;;0.30;0.30;;;20.20;51.40;;;;;;4995069;28;20667;-61
2020/12/14 08:03:05;;;;;;;4.13;0.33;;;20.20;52.10;;;;;;5005366;28;20246;-61
2020/12/14 08:05:32;;;;;;;1.33;0.30;;;20.20;51.20;;;;;;4999698;28;20385;-67
2020/12/14 08:08:03;;;;;;;3.83;0.47;;;20.20;51.40;;;;;;5005951;28;20239;-70
2020/12/14 08:10:34;;;;;;;6.53;0.77;;;20.20;52.80;;;;;;5006268;28;20227;-61
2020/12/14 08:13:09;;;;;;;1.10;0.53;;;20.20;53.40;;;;;;4998411;28;20222;-60
2020/12/14 08:15:37;;;;;;;2.73;0.97;;;20.30;53.80;;;;;;5005445;28;20242;-62
2020/12/14 08:18:11;;;;;;;3.93;0.80;;;20.30;53.90;;;;;;4996683;28;20595;-62
2020/12/14 08:20:42;;;;;;;1.93;1.10;;;20.30;53.90;;;;;;5004987;28;20273;-63
2020/12/14 08:23:23;;;;;;;2.37;0.93;;;20.40;53.60;;;;;;4996445;28;20317;-64
2020/12/14 08:25:51;;;;;;;2.40;0.90;;;20.40;53.50;;;;;;5003594;28;20226;-63
2020/12/14 08:28:27;;;;;;;2.87;1.13;;;20.40;53.30;;;;;;4995703;28;20695;-62
2020/12/14 08:30:54;;;;;;;3.03;1.10;;;20.50;53.20;;;;;;5005108;28;20584;-61
2020/12/14 08:33:20;;;;;;;3.73;1.30;;;20.50;53.00;;;;;;4990092;28;20219;-61
2020/12/14 08:35:52;;;;;;;2.47;1.20;;;20.50;53.10;;;;;;5003334;28;20235;-63
2020/12/14 08:38:29;;;;;;;2.93;1.20;;;20.60;52.80;;;;;;4990551;28;20231;-62
2020/12/14 08:41:01;;;;;;;1.13;0.80;;;20.60;52.70;;;;;;5000559;28;20230;-63
2020/12/14 08:43:28;;;;;;;2.13;0.93;;;20.60;52.70;;;;;;4992850;28;20250;-62
2020/12/14 08:46:01;;;;;;;2.30;1.00;;;20.70;52.40;;;;;;4999651;28;20622;-64
2020/12/14 08:48:29;;;;;;;3.87;1.17;;;20.70;52.30;;;;;;4991902;28;20222;-64
2020/12/14 08:51:07;;;;;;;2.60;1.13;;;20.70;52.20;;;;;;5000478;28;20289;-62
2020/12/14 08:53:34;;;;;;;2.67;1.10;;;20.70;52.20;;;;;;4978412;28;20880;-63
2020/12/14 08:56:10;;;;;;;3.07;1.00;;;20.70;52.10;;;;;;4999503;28;20232;-61
2020/12/14 08:59:11;;;;;;;2.77;0.87;;;20.80;52.20;;;;;;4998288;28;21457;-63
2020/12/14 09:01:38;;;;;;;1.60;0.97;;;20.80;52.00;;;;;;4967967;28;20300;-62
2020/12/14 09:04:05;;;;;;;1.87;0.90;;;20.80;52.20;;;;;;4971996;28;20223;-62
2020/12/14 09:06:37;;;;;;;2.60;1.27;;;20.80;52.20;;;;;;4978704;28;20224;-62
2020/12/14 09:09:14;;;;;;;4.67;0.90;;;20.90;52.40;;;;;;4964349;28;20232;-63
2020/12/14 09:11:46;;;;;;;3.67;1.03;;;20.90;52.00;;;;;;4977173;28;20416;-63
2020/12/14 09:14:24;;;;;;;6.57;0.93;;;20.90;52.20;;;;;;4971430;28;20244;-61
2020/12/14 09:16:52;;;;;;;1.67;0.90;;;21.00;52.80;;;;;;4975564;28;20224;-60
2020/12/14 09:19:21;;;;;;;1.87;1.00;;;21.00;52.00;;;;;;4973481;28;20236;-61
2020/12/14 09:21:47;;;;;;;3.17;0.80;;;21.00;51.80;;;;;;4977532;28;20235;-67
2020/12/14 09:24:17;;;;;;;2.80;1.13;;;21.00;51.70;;;;;;4974605;28;20558;-69
2020/12/14 09:26:46;;;;;;;1.80;1.00;;;21.10;52.00;;;;;;4983709;28;20231;-65
2020/12/14 09:29:12;;;;;;;4.43;0.87;;;21.10;51.80;;;;;;4988343;28;20227;-64
2020/12/14 09:31:40;;;;;;;1.23;0.73;;;21.10;51.60;;;;;;4993232;28;20309;-62
2020/12/14 09:34:06;;;;;;;1.50;0.97;;;21.10;51.40;;;;;;4973722;28;20323;-63
2020/12/14 09:36:33;;;;;;;2.27;0.70;;;21.10;51.50;;;;;;4981425;28;20232;-66
2020/12/14 09:38:59;;;;;;;0.90;0.53;;;21.20;51.70;;;;;;4991317;28;20228;-65
2020/12/14 09:41:30;;;;;;;1.10;0.80;;;21.20;51.50;;;;;;4986268;28;20696;-65
2020/12/14 09:43:58;;;;;;;2.63;0.80;;;21.30;51.20;;;;;;4991881;28;20714;-68
2020/12/14 09:46:28;;;;;;;3.07;0.60;;;21.20;51.10;;;;;;4982751;28;20235;-69
2020/12/14 09:48:56;;;;;;;0.97;0.77;;;21.20;51.20;;;;;;4983596;28;20232;-65
2020/12/14 09:51:24;;;;;;;4.87;0.57;;;21.30;51.50;;;;;;4997250;28;20238;-58
2020/12/14 09:53:50;;;;;;;1.20;0.60;;;21.30;51.00;;;;;;5003612;28;20730;-59
2020/12/14 09:56:17;;;;;;;1.73;0.80;;;21.80;50.00;;;;;;4993542;28;20743;-65
2020/12/14 09:58:45;;;;;;;1.80;0.60;;;22.50;48.40;;;;;;5004631;28;20251;-67
2020/12/14 10:01:12;;;;;;;3.00;0.60;;;23.00;47.30;;;;;;4994662;28;20277;-63
2020/12/14 10:03:39;;;;;;;0.53;0.50;;;23.40;46.60;;;;;;5002965;28;20293;-64
2020/12/14 10:06:05;;;;;;;0.80;0.60;;;23.70;46.00;;;;;;4998460;28;20230;-70
2020/12/14 10:08:31;;;;;;;6.53;0.80;;;24.00;45.50;;;;;;5002951;28;20220;-66
2020/12/14 10:10:58;;;;;;;1.57;0.60;;;24.10;45.30;;;;;;5001103;28;20234;-71
2020/12/14 10:13:24;;;;;;;0.93;0.50;;;24.30;44.90;;;;;;5005012;28;20231;-67
2020/12/14 10:15:56;;;;;;;1.00;0.50;;;24.40;44.70;;;;;;5006772;28;20220;-59
2020/12/14 10:18:24;;;;;;;2.43;0.60;;;24.60;44.50;;;;;;5001479;28;20223;-59
2020/12/14 10:20:50;;;;;;;2.63;0.50;;;24.80;44.40;;;;;;5002768;28;20294;-59
2020/12/14 10:23:16;;;;;;;1.57;0.60;;;24.90;44.20;;;;;;5009153;28;20242;-63
2020/12/14 10:25:43;;;;;;;1.90;0.60;;;25.10;43.90;;;;;;5002037;28;20231;-65
2020/12/14 10:28:10;;;;;;;0.80;0.60;;;25.20;43.70;;;;;;4992855;28;20227;-65
2020/12/14 10:30:37;;;;;;;2.67;0.67;;;25.30;43.50;;;;;;5001314;28;20774;-63
2020/12/14 10:33:14;;;;;;;1.03;0.60;;;25.40;43.50;;;;;;4991012;28;21648;-63
2020/12/14 10:35:47;;;;;;;2.00;0.60;;;25.50;43.30;;;;;;5003040;28;20425;-59
2020/12/14 10:38:14;;;;;;;1.57;0.50;;;25.50;41.60;;;;;;4993752;28;20263;-58
2020/12/14 10:40:41;;;;;;;1.43;0.67;;;24.80;42.20;;;;;;4987310;28;20224;-60
2020/12/14 10:43:07;;;;;;;3.20;0.80;;;24.70;43.90;;;;;;4974798;28;20681;-62
2020/12/14 10:45:34;;;;;;;1.80;0.77;;;25.10;43.60;;;;;;4987148;28;20227;-62
2020/12/14 10:48:01;;;;;;;1.20;0.60;;;25.40;43.60;;;;;;4992358;28;20234;-62
2020/12/14 10:50:27;;;;;;;0.70;0.57;;;25.70;43.30;;;;;;4989743;28;20237;-63
2020/12/14 10:52:54;;;;;;;1.60;0.70;;;25.90;43.20;;;;;;4993773;28;20251;-61
2020/12/14 10:55:22;;;;;;;0.93;0.60;;;26.00;42.70;;;;;;5002335;28;20688;-59
2020/12/14 10:57:49;;;;;;;0.93;0.50;;;26.20;42.70;;;;;;4996749;28;20227;-59
2020/12/14 11:00:18;;;;;;;0.80;0.50;;;26.30;42.30;;;;;;5003792;28;20244;-61
2020/12/14 11:02:45;;;;;;;0.80;0.50;;;26.50;42.40;;;;;;4999481;28;20733;-63
2020/12/14 11:05:12;;;;;;;0.60;0.60;;;26.60;42.80;;;;;;4995759;28;20226;-63
2020/12/14 11:07:38;;;;;;;2.50;0.80;;;26.60;42.00;;;;;;5000602;28;21126;-64
2020/12/14 11:10:08;;;;;;;1.30;0.60;;;26.60;42.00;;;;;;4997380;28;20282;-67
2020/12/14 11:12:34;;;;;;;0.87;0.60;;;26.70;42.00;;;;;;5003045;28;20224;-62
2020/12/14 11:15:00;;;;;;;1.07;0.90;;;26.70;41.70;;;;;;5010570;28;20243;-64
2020/12/14 11:17:27;;;;;;;1.53;0.80;;;26.80;41.90;;;;;;5004572;28;20223;-62
2020/12/14 11:19:54;;;;;;;1.50;0.70;;;27.00;41.40;;;;;;4988736;28;20814;-63
2020/12/14 11:22:20;;;;;;;1.50;0.73;;;27.00;41.30;;;;;;5003263;28;20220;-65
2020/12/14 11:24:46;;;;;;;1.87;0.63;;;27.10;41.00;;;;;;4993430;28;20224;-64
2020/12/14 11:27:18;;;;;;;1.67;0.57;;;27.20;40.90;;;;;;4982658;28;20334;-65
2020/12/14 11:29:44;;;;;;;1.70;0.80;;;27.20;40.90;;;;;;4986278;28;20224;-63
2020/12/14 11:32:11;;;;;;;2.30;0.70;;;27.20;40.90;;;;;;5003427;28;20224;-64
2020/12/14 11:34:38;;;;;;;0.60;0.60;;;27.40;41.60;;;;;;4979355;28;20271;-65
2020/12/14 11:37:04;;;;;;;1.23;0.87;;;27.40;40.90;;;;;;4997914;28;20224;-65
2020/12/14 11:39:31;;;;;;;1.10;0.93;;;27.40;40.80;;;;;;4976866;28;20231;-65
2020/12/14 11:41:57;;;;;;;0.70;0.70;;;27.50;40.90;;;;;;4985084;28;20229;-65
2020/12/14 11:44:23;;;;;;;1.17;0.90;;;27.60;40.80;;;;;;4984275;28;20236;-64
2020/12/14 11:46:53;;;;;;;4.43;1.00;;;27.60;40.30;;;;;;4977667;28;20216;-63
2020/12/14 11:49:19;;;;;;;1.63;0.77;;;27.00;41.50;;;;;;4983482;28;20238;-64
2020/12/14 11:51:49;;;;;;;1.03;0.80;;;26.50;42.30;;;;;;4980833;28;20247;-63
2020/12/14 11:54:17;;;;;;;1.63;0.80;;;26.10;42.90;;;;;;4986560;28;20239;-64
2020/12/14 11:56:46;;;;;;;0.87;0.70;;;25.80;43.40;;;;;;4974202;28;20366;-64
2020/12/14 11:59:13;;;;;;;1.63;0.70;;;25.60;43.60;;;;;;4987452;28;20239;-64
2020/12/14 12:01:40;;;;;;;0.93;0.80;;;25.50;43.80;;;;;;4996443;28;20239;-63
2020/12/14 12:04:09;;;;;;;0.77;0.70;;;25.30;43.80;;;;;;5004868;28;20219;-63
2020/12/14 12:06:35;;;;;;;0.93;0.87;;;25.20;44.10;;;;;;4996986;28;20235;-64
2020/12/14 12:09:03;;;;;;;0.47;0.47;;;25.10;44.20;;;;;;5004982;28;20239;-63
2020/12/14 12:11:31;;;;;;;0.80;0.70;;;25.00;44.40;;;;;;4993760;28;20230;-64
2020/12/14 12:13:58;;;;;;;1.13;0.60;;;24.90;44.40;;;;;;4986874;28;20224;-63
2020/12/14 12:16:24;;;;;;;0.80;0.60;;;24.80;44.50;;;;;;4986009;28;20267;-65
2020/12/14 12:18:50;;;;;;;1.70;0.67;;;24.70;44.60;;;;;;4986598;28;20252;-63
2020/12/14 12:21:17;;;;;;;1.20;0.60;;;24.60;45.40;;;;;;4978580;28;20303;-64
2020/12/14 12:23:44;;;;;;;0.90;0.50;;;24.60;45.70;;;;;;4998330;28;20231;-65
2020/12/14 12:26:10;;;;;;;0.80;0.70;;;24.60;45.90;;;;;;4993900;28;20232;-66
2020/12/14 12:28:38;;;;;;;0.70;0.70;;;24.60;46.30;;;;;;4979070;28;20236;-65
2020/12/14 12:31:05;;;;;;;1.03;0.87;;;24.50;46.30;;;;;;4990066;28;20224;-65
2020/12/14 12:33:32;;;;;;;3.47;0.87;;;24.50;47.40;;;;;;4982994;28;20677;-62
2020/12/14 12:35:58;;;;;;;3.07;0.90;;;24.50;47.20;;;;;;4999531;28;20695;-64
2020/12/14 12:38:25;;;;;;;1.13;0.60;;;24.50;47.60;;;;;;4995626;28;20619;-66
2020/12/14 12:40:51;;;;;;;1.43;0.70;;;24.50;46.30;;;;;;5006753;28;20235;-66
2020/12/14 12:43:17;;;;;;;0.90;0.80;;;25.10;44.80;;;;;;4996943;28;20226;-65
2020/12/14 12:45:45;;;;;;;1.17;0.70;;;25.70;44.00;;;;;;5003922;28;20235;-63
2020/12/14 12:48:11;;;;;;;1.27;0.60;;;26.00;43.50;;;;;;4994874;28;20584;-63
2020/12/14 12:50:52;;;;;;;0.70;0.70;;;26.30;43.00;;;;;;5004134;28;20228;-64
2020/12/14 12:53:28;;;;;;;1.13;0.87;;;26.60;42.60;;;;;;4995463;28;20243;-61